Time;durP1;ratioP1;P1;durP2;ratioP2;P2;SDS_P1;SDS_P2;PMS_P1;PMS_P2;Temp;Humidity;BMP_temperature;BMP_pressure;BME280_temperature;BME280_humidity;BME280_pressure;Samples;Min_cycle;Max_cycle;Signal;HPM_P1;HPM_P2
2021/10/17 00:01:11;;;;;;;8.73;4.07;;;17.60;78.50;;;;;;4230839;28;20059;-73
2021/10/17 00:03:19;;;;;;;7.03;3.75;;;17.60;78.50;;;;;;4248377;27;20540;-73
2021/10/17 00:05:25;;;;;;;8.48;4.22;;;17.60;78.50;;;;;;4248585;27;20055;-73
2021/10/17 00:07:29;;;;;;;8.18;3.63;;;17.60;78.50;;;;;;4248383;27;20047;-73
2021/10/17 00:09:32;;;;;;;8.45;4.20;;;17.60;78.60;;;;;;4248194;27;20058;-74
2021/10/17 00:11:40;;;;;;;9.68;4.00;;;17.60;78.60;;;;;;4248242;27;20058;-73
2021/10/17 00:13:43;;;;;;;9.13;4.40;;;17.60;78.60;;;;;;4248122;27;20055;-73
2021/10/17 00:15:51;;;;;;;7.72;3.88;;;17.60;78.60;;;;;;4248493;27;20063;-74
2021/10/17 00:18:00;;;;;;;9.32;4.30;;;17.50;78.50;;;;;;4247998;27;20099;-73
2021/10/17 00:20:06;;;;;;;6.82;4.18;;;17.50;78.50;;;;;;4248389;27;20069;-73
2021/10/17 00:22:14;;;;;;;7.03;3.90;;;17.50;78.60;;;;;;4248398;27;20399;-73
2021/10/17 00:24:23;;;;;;;8.57;4.40;;;17.50;78.60;;;;;;4248294;27;20043;-73
2021/10/17 00:26:32;;;;;;;11.75;4.20;;;17.50;78.50;;;;;;4248498;27;20055;-74
2021/10/17 00:28:35;;;;;;;8.00;3.70;;;17.50;78.50;;;;;;4248492;27;20080;-74
2021/10/17 00:30:43;;;;;;;8.13;4.20;;;17.50;78.60;;;;;;4248599;27;20043;-73
2021/10/17 00:32:51;;;;;;;7.32;4.25;;;17.50;78.60;;;;;;4230214;27;20052;-73
2021/10/17 00:35:01;;;;;;;8.88;4.18;;;17.50;78.60;;;;;;4242278;27;20084;-73
2021/10/17 00:37:04;;;;;;;;;;;17.50;78.60;;;;;;4248916;27;20085;-73
2021/10/17 00:39:12;;;;;;;8.25;4.10;;;17.50;78.70;;;;;;4230525;27;19980;-73
2021/10/17 00:41:21;;;;;;;9.38;4.25;;;17.50;78.70;;;;;;4248709;27;20108;-75
2021/10/17 00:43:24;;;;;;;8.50;4.20;;;17.50;78.80;;;;;;4248178;27;20047;-73
2021/10/17 00:45:27;;;;;;;8.52;4.53;;;17.50;78.70;;;;;;4248305;27;20043;-73
2021/10/17 00:47:30;;;;;;;9.43;4.50;;;17.50;78.80;;;;;;4248102;27;20051;-73
2021/10/17 00:49:33;;;;;;;8.57;4.10;;;17.50;78.70;;;;;;4247633;27;20167;-73
2021/10/17 00:51:42;;;;;;;9.93;5.22;;;17.50;79.30;;;;;;4248034;27;20047;-73
2021/10/17 00:53:45;;;;;;;8.32;4.55;;;17.50;78.70;;;;;;4247960;27;20042;-73
2021/10/17 00:55:54;;;;;;;7.65;4.47;;;17.50;78.70;;;;;;4247808;27;20108;-73
2021/10/17 00:58:01;;;;;;;6.80;4.10;;;17.50;78.70;;;;;;4247996;27;20050;-73
2021/10/17 01:00:11;;;;;;;8.88;4.88;;;17.40;78.60;;;;;;4247656;27;20504;-74
2021/10/17 01:02:18;;;;;;;9.75;4.45;;;17.50;78.80;;;;;;4237719;27;20059;-73
2021/10/17 01:04:22;;;;;;;7.13;4.38;;;17.50;78.70;;;;;;4247530;27;20380;-74
2021/10/17 01:06:25;;;;;;;6.30;4.22;;;17.40;78.70;;;;;;4248106;27;20055;-73
2021/10/17 01:08:32;;;;;;;7.97;4.25;;;17.40;78.70;;;;;;4246961;27;20704;-74
2021/10/17 01:10:35;;;;;;;8.57;4.30;;;17.40;78.70;;;;;;4246617;27;20039;-73
2021/10/17 01:12:44;;;;;;;5.90;4.05;;;17.40;78.70;;;;;;4247652;27;20051;-73
2021/10/17 01:14:48;;;;;;;8.35;4.53;;;17.40;78.70;;;;;;4246981;27;20051;-73
2021/10/17 01:16:52;;;;;;;9.82;4.88;;;17.40;78.70;;;;;;4247335;27;20438;-73
2021/10/17 01:18:55;;;;;;;10.93;4.55;;;17.40;78.80;;;;;;4247441;27;20503;-73
2021/10/17 01:21:05;;;;;;;9.93;4.28;;;17.40;78.70;;;;;;4243428;27;20064;-73
2021/10/17 01:23:13;;;;;;;9.02;4.63;;;17.40;78.80;;;;;;4247348;27;20423;-73
2021/10/17 01:25:21;;;;;;;8.65;4.70;;;17.40;78.70;;;;;;4230023;27;20051;-74
2021/10/17 01:27:24;;;;;;;8.52;4.47;;;17.40;78.80;;;;;;4248077;27;20438;-73
2021/10/17 01:29:31;;;;;;;9.77;4.55;;;17.40;78.80;;;;;;4247429;27;20055;-74
2021/10/17 01:31:36;;;;;;;8.55;4.78;;;17.40;78.80;;;;;;4247327;27;20062;-74
2021/10/17 01:33:44;;;;;;;10.32;4.82;;;17.40;78.80;;;;;;4247213;27;20128;-74
2021/10/17 01:35:52;;;;;;;8.13;4.70;;;17.40;78.80;;;;;;4246982;27;20547;-73
2021/10/17 01:38:01;;;;;;;9.02;4.75;;;17.40;78.80;;;;;;4247460;27;20043;-73
2021/10/17 01:40:05;;;;;;;10.60;4.55;;;17.40;78.80;;;;;;4246809;27;20108;-73
2021/10/17 01:42:13;;;;;;;6.93;4.43;;;17.40;78.80;;;;;;4235607;27;20104;-74
2021/10/17 01:44:25;;;;;;;9.32;4.57;;;17.40;78.80;;;;;;4247122;27;20055;-74
2021/10/17 01:46:29;;;;;;;9.55;5.13;;;17.30;78.80;;;;;;4246889;27;20051;-73
2021/10/17 01:48:32;;;;;;;12.77;4.88;;;17.40;78.90;;;;;;4246916;27;20058;-73
2021/10/17 01:50:40;;;;;;;7.90;4.55;;;17.30;78.70;;;;;;4246665;27;20055;-73
2021/10/17 01:52:43;;;;;;;9.13;4.45;;;17.30;78.80;;;;;;4246950;27;20617;-73
2021/10/17 01:54:52;;;;;;;9.98;4.88;;;17.30;78.70;;;;;;4246897;27;20399;-74
2021/10/17 01:57:00;;;;;;;9.57;5.13;;;17.30;78.80;;;;;;4246429;27;20537;-73
2021/10/17 01:59:04;;;;;;;8.75;4.82;;;17.30;78.70;;;;;;4246929;27;20548;-73
2021/10/17 02:01:12;;;;;;;10.77;5.53;;;17.30;78.80;;;;;;4229186;28;20051;-74
2021/10/17 02:03:15;;;;;;;8.27;4.90;;;17.30;78.80;;;;;;4246336;27;20075;-73
2021/10/17 02:05:23;;;;;;;8.85;4.95;;;17.30;78.80;;;;;;4246485;27;20392;-74
2021/10/17 02:07:31;;;;;;;8.30;4.65;;;17.30;78.70;;;;;;4245795;27;20059;-73
2021/10/17 02:09:34;;;;;;;8.27;4.75;;;17.30;78.80;;;;;;4246674;27;20061;-73
2021/10/17 02:11:43;;;;;;;9.80;4.75;;;17.30;78.70;;;;;;4246372;27;20055;-73
2021/10/17 02:13:46;;;;;;;10.73;4.35;;;17.30;78.70;;;;;;4246794;27;20055;-73
2021/10/17 02:15:54;;;;;;;8.65;4.70;;;17.30;78.70;;;;;;4246590;27;20063;-74
2021/10/17 02:18:02;;;;;;;9.05;4.80;;;17.30;78.70;;;;;;4243345;27;20107;-73
2021/10/17 02:20:06;;;;;;;9.75;4.70;;;17.30;78.70;;;;;;4245508;27;20047;-74
2021/10/17 02:22:14;;;;;;;8.77;4.88;;;17.30;78.80;;;;;;4246415;27;20444;-73
2021/10/17 02:24:22;;;;;;;8.60;4.93;;;17.20;78.70;;;;;;4246515;27;20054;-73
2021/10/17 02:26:30;;;;;;;7.88;4.82;;;17.30;78.80;;;;;;4246356;27;20047;-73
2021/10/17 02:28:39;;;;;;;10.82;5.18;;;17.20;78.70;;;;;;4246007;27;20487;-73
2021/10/17 02:30:42;;;;;;;8.52;4.82;;;17.30;78.80;;;;;;4246217;27;20574;-73
2021/10/17 02:32:50;;;;;;;10.25;5.38;;;17.20;78.70;;;;;;4246040;27;20047;-73
2021/10/17 02:34:53;;;;;;;7.78;4.65;;;17.20;78.70;;;;;;4246547;27;20051;-73
2021/10/17 02:37:00;;;;;;;9.10;5.00;;;17.20;78.70;;;;;;4246068;27;20058;-73
2021/10/17 02:39:03;;;;;;;7.30;4.50;;;17.20;78.70;;;;;;4245907;27;20047;-73
2021/10/17 02:41:11;;;;;;;9.13;5.30;;;17.20;78.70;;;;;;4246122;27;20530;-73
2021/10/17 02:43:19;;;;;;;7.88;4.70;;;17.20;78.70;;;;;;4246014;27;20070;-73
2021/10/17 02:45:24;;;;;;;10.63;4.97;;;17.20;78.60;;;;;;4246080;27;20499;-73
2021/10/17 02:47:32;;;;;;;12.77;5.70;;;17.20;78.70;;;;;;4245637;27;20050;-73
2021/10/17 02:49:40;;;;;;;8.27;4.90;;;17.20;78.70;;;;;;4245765;27;20812;-73
2021/10/17 02:51:48;;;;;;;8.20;4.95;;;17.20;78.70;;;;;;4246265;27;20063;-73
2021/10/17 02:53:51;;;;;;;10.32;5.20;;;17.20;78.70;;;;;;4245656;27;20051;-73
2021/10/17 02:55:54;;;;;;;8.73;5.00;;;17.20;78.70;;;;;;4245951;27;20048;-74
2021/10/17 02:58:02;;;;;;;8.88;5.20;;;17.20;78.70;;;;;;4246317;27;20055;-74
2021/10/17 03:00:06;;;;;;;9.75;5.18;;;17.10;78.60;;;;;;4246637;27;20047;-73
2021/10/17 03:02:15;;;;;;;11.43;4.93;;;17.20;78.70;;;;;;4246722;28;20122;-73
2021/10/17 03:04:23;;;;;;;8.30;5.00;;;17.10;78.60;;;;;;4244702;28;20051;-73
2021/10/17 03:06:31;;;;;;;9.40;5.07;;;17.10;78.60;;;;;;4245696;28;20119;-74
2021/10/17 03:08:34;;;;;;;8.57;5.38;;;17.10;78.70;;;;;;4245565;28;20043;-73
2021/10/17 03:10:42;;;;;;;9.23;4.78;;;17.10;78.60;;;;;;4246061;28;20051;-73
2021/10/17 03:12:51;;;;;;;9.07;5.07;;;17.10;78.60;;;;;;4246009;28;20085;-74
2021/10/17 03:14:53;;;;;;;9.57;5.72;;;17.10;78.70;;;;;;4242544;28;20391;-74
2021/10/17 03:17:01;;;;;;;8.93;5.28;;;17.10;78.70;;;;;;4246027;28;20116;-73
2021/10/17 03:19:06;;;;;;;9.27;5.75;;;17.10;78.70;;;;;;4245530;28;20074;-73
2021/10/17 03:21:14;;;;;;;8.95;4.97;;;17.10;78.70;;;;;;4246008;28;20502;-73
2021/10/17 03:23:21;;;;;;;8.52;5.25;;;17.10;78.70;;;;;;4245668;28;20047;-73
2021/10/17 03:25:29;;;;;;;8.73;5.22;;;17.10;78.70;;;;;;4245708;28;20445;-74
2021/10/17 03:27:37;;;;;;;7.75;4.90;;;17.10;78.70;;;;;;4246048;28;20063;-73
2021/10/17 03:29:45;;;;;;;8.23;5.43;;;17.10;78.70;;;;;;4245659;28;20070;-73
2021/10/17 03:31:53;;;;;;;9.43;5.75;;;17.10;78.70;;;;;;4247751;27;20582;-73
2021/10/17 03:33:56;;;;;;;8.35;4.28;;;17.10;78.70;;;;;;4248992;27;20042;-74
2021/10/17 03:36:05;;;;;;;10.40;5.57;;;17.10;78.70;;;;;;4238429;27;20051;-74
2021/10/17 03:38:13;;;;;;;11.60;5.50;;;17.10;78.70;;;;;;4249096;27;20464;-73
2021/10/17 03:40:21;;;;;;;7.72;4.68;;;17.10;78.70;;;;;;4248659;27;20047;-73
2021/10/17 03:42:24;;;;;;;9.90;4.75;;;17.00;78.60;;;;;;4231237;28;20044;-74
2021/10/17 03:44:32;;;;;;;10.38;5.25;;;17.00;78.60;;;;;;4249556;27;20099;-75
2021/10/17 03:46:35;;;;;;;8.32;4.78;;;17.10;78.70;;;;;;4249806;27;20058;-74
2021/10/17 03:48:42;;;;;;;7.97;4.90;;;17.10;78.70;;;;;;4249617;27;20055;-74
2021/10/17 03:50:50;;;;;;;12.15;5.20;;;17.00;78.70;;;;;;4248133;27;20047;-74
2021/10/17 03:52:55;;;;;;;13.57;6.25;;;17.10;78.70;;;;;;4213858;28;20109;-73
2021/10/17 03:55:03;;;;;;;7.85;4.80;;;17.00;78.60;;;;;;4240629;27;20047;-73
2021/10/17 03:57:11;;;;;;;9.15;5.30;;;17.00;78.60;;;;;;4231346;27;20056;-73
2021/10/17 03:59:17;;;;;;;8.93;5.32;;;17.00;78.60;;;;;;4248474;27;20059;-74
2021/10/17 04:01:20;;;;;;;8.05;4.90;;;17.00;78.70;;;;;;4248400;27;20055;-73
2021/10/17 04:03:23;;;;;;;7.40;4.93;;;17.00;78.70;;;;;;4248639;27;20074;-73
2021/10/17 04:05:31;;;;;;;9.25;4.80;;;17.00;78.60;;;;;;4248366;27;20536;-73
2021/10/17 04:07:39;;;;;;;7.95;5.38;;;17.00;78.60;;;;;;4248842;27;20058;-73
2021/10/17 04:09:48;;;;;;;7.57;5.10;;;17.00;78.70;;;;;;4248606;27;20047;-73
2021/10/17 04:11:52;;;;;;;9.48;5.20;;;17.00;78.70;;;;;;4248665;27;20059;-73
2021/10/17 04:13:59;;;;;;;8.20;4.82;;;17.00;78.70;;;;;;4248422;27;20055;-73
2021/10/17 04:16:03;;;;;;;8.02;4.97;;;17.00;78.70;;;;;;4248411;27;20051;-74
2021/10/17 04:18:11;;;;;;;8.85;5.00;;;17.00;78.70;;;;;;4248718;27;20051;-74
2021/10/17 04:20:14;;;;;;;10.00;5.35;;;17.00;78.60;;;;;;4248591;27;20047;-74
2021/10/17 04:22:21;;;;;;;8.55;5.30;;;16.90;78.60;;;;;;4248708;27;20107;-73
2021/10/17 04:24:29;;;;;;;8.25;4.80;;;16.90;78.60;;;;;;4248340;27;20050;-73
2021/10/17 04:26:39;;;;;;;9.25;5.07;;;16.90;78.60;;;;;;4248121;27;20051;-73
2021/10/17 04:28:42;;;;;;;9.10;5.35;;;17.00;78.60;;;;;;4248565;27;20126;-74
2021/10/17 04:30:49;;;;;;;9.65;5.50;;;16.90;78.60;;;;;;4249149;27;20043;-74
2021/10/17 04:32:52;;;;;;;8.98;5.28;;;17.00;78.70;;;;;;4237616;27;20051;-74
2021/10/17 04:35:00;;;;;;;7.78;4.65;;;16.90;78.70;;;;;;4248439;27;20059;-73
2021/10/17 04:37:05;;;;;;;9.23;4.72;;;16.90;78.60;;;;;;4247762;27;20047;-74
2021/10/17 04:39:15;;;;;;;9.43;4.78;;;16.90;78.70;;;;;;4248341;27;20047;-74
2021/10/17 04:41:23;;;;;;;8.80;5.13;;;16.90;78.60;;;;;;4247526;27;20047;-73
2021/10/17 04:43:27;;;;;;;9.30;5.10;;;16.90;78.70;;;;;;4247162;27;20406;-74
2021/10/17 04:45:30;;;;;;;8.27;5.18;;;16.90;78.60;;;;;;4247856;27;20136;-74
2021/10/17 04:47:34;;;;;;;8.50;4.90;;;16.90;78.70;;;;;;4247757;27;20051;-74
2021/10/17 04:49:37;;;;;;;10.68;4.85;;;16.90;78.60;;;;;;4247727;27;20388;-74
2021/10/17 04:51:40;;;;;;;10.07;5.10;;;16.90;78.60;;;;;;4247635;27;20403;-74
2021/10/17 04:53:43;;;;;;;7.88;4.72;;;16.90;78.70;;;;;;4247763;27;20050;-74
2021/10/17 04:55:51;;;;;;;8.70;4.93;;;16.90;78.60;;;;;;4247891;27;20058;-73
2021/10/17 04:58:01;;;;;;;8.68;4.88;;;16.80;78.60;;;;;;4247629;27;20059;-74
2021/10/17 05:00:07;;;;;;;8.35;5.72;;;16.90;78.60;;;;;;4247705;27;20055;-73
2021/10/17 05:02:15;;;;;;;8.35;5.25;;;16.90;78.70;;;;;;4247402;27;20112;-74
2021/10/17 05:04:23;;;;;;;6.63;4.70;;;16.90;78.70;;;;;;4247946;27;20056;-73
2021/10/17 05:06:31;;;;;;;6.85;4.57;;;16.90;78.60;;;;;;4230257;27;20051;-74
2021/10/17 05:08:39;;;;;;;9.77;5.30;;;16.90;78.70;;;;;;4244110;27;20668;-73
2021/10/17 05:10:42;;;;;;;10.30;4.63;;;16.80;78.70;;;;;;4247608;27;20066;-73
2021/10/17 05:12:45;;;;;;;7.60;4.95;;;16.80;79.20;;;;;;4247431;27;20104;-74
2021/10/17 05:14:53;;;;;;;8.50;5.05;;;16.90;78.60;;;;;;4247952;27;20062;-73
2021/10/17 05:17:02;;;;;;;7.55;5.05;;;16.80;78.50;;;;;;4248330;27;20051;-73
2021/10/17 05:19:10;;;;;;;6.68;4.57;;;16.90;78.60;;;;;;4248064;27;20497;-74
2021/10/17 05:21:18;;;;;;;6.93;4.93;;;16.90;78.60;;;;;;4247215;27;20047;-73
2021/10/17 05:23:23;;;;;;;7.45;5.22;;;16.80;78.60;;;;;;4247344;27;20110;-73
2021/10/17 05:25:30;;;;;;;7.35;4.88;;;16.80;78.60;;;;;;4247113;27;20047;-74
2021/10/17 05:27:33;;;;;;;7.47;4.82;;;16.80;78.60;;;;;;4246744;27;20051;-73
2021/10/17 05:29:41;;;;;;;8.15;5.38;;;16.80;78.50;;;;;;4247293;27;20461;-74
2021/10/17 05:31:44;;;;;;;9.15;4.78;;;16.80;78.60;;;;;;4247117;27;20062;-73
2021/10/17 05:33:49;;;;;;;6.15;4.47;;;16.80;78.50;;;;;;4246853;27;20062;-73
2021/10/17 05:35:57;;;;;;;8.68;5.10;;;16.80;78.50;;;;;;4247268;27;20469;-74
2021/10/17 05:38:00;;;;;;;8.40;5.35;;;16.80;78.60;;;;;;4246747;27;20115;-74
2021/10/17 05:40:04;;;;;;;8.18;5.30;;;16.80;78.50;;;;;;4246750;27;20055;-74
2021/10/17 05:42:12;;;;;;;9.80;5.50;;;16.80;78.60;;;;;;4246876;27;20399;-74
2021/10/17 05:44:20;;;;;;;10.25;5.47;;;16.80;78.50;;;;;;4246819;27;20111;-73
2021/10/17 05:46:23;;;;;;;7.93;4.95;;;16.80;78.60;;;;;;4247021;27;20055;-74
2021/10/17 05:48:30;;;;;;;8.85;5.55;;;16.80;78.60;;;;;;4246917;27;20050;-73
2021/10/17 05:50:35;;;;;;;7.47;5.72;;;16.80;78.50;;;;;;4228642;27;20113;-74
2021/10/17 05:52:43;;;;;;;8.48;4.97;;;16.70;78.50;;;;;;4229777;27;20052;-74
2021/10/17 05:54:50;;;;;;;8.85;5.20;;;16.70;78.50;;;;;;4246463;27;20407;-73
2021/10/17 05:56:53;;;;;;;10.85;6.43;;;16.70;78.50;;;;;;4246903;27;20448;-73
2021/10/17 05:58:56;;;;;;;9.65;5.57;;;16.70;78.50;;;;;;4246791;27;20051;-73
2021/10/17 06:01:04;;;;;;;10.13;4.80;;;16.70;78.50;;;;;;4230167;27;20617;-74
2021/10/17 06:03:12;;;;;;;7.65;4.75;;;16.70;78.50;;;;;;4247753;27;20133;-75
2021/10/17 06:05:15;;;;;;;8.63;5.20;;;16.80;78.50;;;;;;4247398;27;20521;-74
2021/10/17 06:07:25;;;;;;;7.28;4.85;;;16.80;78.60;;;;;;4230069;28;20056;-74
2021/10/17 06:09:34;;;;;;;8.82;5.47;;;16.70;78.50;;;;;;4238856;27;20046;-74
2021/10/17 06:11:37;;;;;;;10.98;5.25;;;16.70;78.50;;;;;;4246843;27;20062;-74
2021/10/17 06:13:45;;;;;;;8.68;5.72;;;16.70;78.50;;;;;;4246827;27;20085;-72
2021/10/17 06:15:53;;;;;;;8.38;5.13;;;16.70;78.50;;;;;;4243001;27;20063;-72
2021/10/17 06:18:01;;;;;;;8.38;4.82;;;16.70;78.50;;;;;;4246593;27;20059;-73
2021/10/17 06:20:09;;;;;;;8.85;5.10;;;16.70;78.50;;;;;;4246394;27;20058;-72
2021/10/17 06:22:12;;;;;;;8.18;5.13;;;16.70;78.50;;;;;;4246599;27;20051;-73
2021/10/17 06:24:16;;;;;;;8.55;5.28;;;16.70;78.50;;;;;;4246274;27;20448;-72
2021/10/17 06:26:24;;;;;;;8.77;5.18;;;16.70;78.50;;;;;;4229149;27;20207;-72
2021/10/17 06:28:32;;;;;;;12.35;6.05;;;16.70;78.40;;;;;;4246407;27;20062;-73
2021/10/17 06:30:40;;;;;;;7.88;4.80;;;16.70;78.50;;;;;;4246075;27;20499;-73
2021/10/17 06:32:43;;;;;;;10.35;5.38;;;16.60;78.40;;;;;;4246131;27;20051;-72
2021/10/17 06:34:46;;;;;;;8.60;5.50;;;16.60;78.40;;;;;;4246495;27;20441;-72
2021/10/17 06:36:53;;;;;;;8.40;5.30;;;16.70;78.50;;;;;;4246361;27;20055;-72
2021/10/17 06:39:02;;;;;;;7.97;5.15;;;16.60;78.40;;;;;;4246280;27;20051;-72
2021/10/17 06:41:06;;;;;;;7.88;5.10;;;16.60;78.40;;;;;;4245713;27;20491;-72
2021/10/17 06:43:14;;;;;;;10.07;5.22;;;16.70;78.40;;;;;;4246301;27;20055;-72
2021/10/17 06:45:22;;;;;;;7.03;4.85;;;16.60;78.40;;;;;;4228791;27;20051;-72
2021/10/17 06:47:25;;;;;;;8.65;5.25;;;16.60;78.40;;;;;;4247166;27;20142;-72
2021/10/17 06:49:33;;;;;;;7.63;5.03;;;16.60;78.40;;;;;;4246888;27;20617;-72
2021/10/17 06:51:41;;;;;;;8.00;4.70;;;16.60;78.30;;;;;;4245863;27;20051;-73
2021/10/17 06:53:49;;;;;;;8.68;4.95;;;16.60;78.40;;;;;;4246259;27;20499;-72
2021/10/17 06:55:53;;;;;;;9.23;5.57;;;16.60;78.40;;;;;;4246057;27;20053;-72
2021/10/17 06:58:02;;;;;;;8.35;5.28;;;16.60;78.40;;;;;;4245990;27;20047;-73
2021/10/17 07:00:06;;;;;;;6.95;4.90;;;16.60;78.40;;;;;;4246097;27;20054;-72
2021/10/17 07:02:14;;;;;;;12.10;5.13;;;16.60;78.40;;;;;;4245518;27;20059;-73
2021/10/17 07:04:22;;;;;;;7.93;4.82;;;16.60;78.30;;;;;;4228556;28;20051;-72
2021/10/17 07:06:25;;;;;;;8.35;4.95;;;16.60;78.30;;;;;;4244703;27;20419;-72
2021/10/17 07:08:33;;;;;;;7.60;5.03;;;16.60;78.30;;;;;;4245685;28;20054;-72
2021/10/17 07:10:36;;;;;;;7.05;4.88;;;16.60;78.40;;;;;;4245762;28;20376;-72
2021/10/17 07:12:44;;;;;;;8.18;4.90;;;16.60;78.40;;;;;;4241829;28;20123;-72
2021/10/17 07:14:53;;;;;;;9.27;4.60;;;16.60;78.40;;;;;;4245720;28;20103;-72
2021/10/17 07:16:56;;;;;;;9.27;5.32;;;16.60;78.40;;;;;;4245693;28;20092;-72
2021/10/17 07:19:04;;;;;;;6.32;4.50;;;16.60;78.30;;;;;;4245769;28;20062;-72
2021/10/17 07:21:12;;;;;;;9.93;5.38;;;16.60;78.40;;;;;;4245469;28;20054;-72
2021/10/17 07:23:15;;;;;;;7.38;4.93;;;16.60;78.30;;;;;;4245808;28;20047;-73
2021/10/17 07:25:23;;;;;;;8.32;5.07;;;16.50;78.30;;;;;;4245966;28;20051;-73
2021/10/17 07:27:26;;;;;;;8.80;4.88;;;16.60;78.40;;;;;;4245604;28;20051;-72
2021/10/17 07:29:34;;;;;;;9.65;5.40;;;16.60;78.40;;;;;;4245969;28;20055;-72
2021/10/17 07:31:43;;;;;;;8.02;5.18;;;16.60;78.30;;;;;;4246532;28;20108;-73
2021/10/17 07:33:51;;;;;;;7.88;4.93;;;16.60;78.30;;;;;;4229211;28;20641;-72
2021/10/17 07:35:54;;;;;;;9.48;4.90;;;16.60;78.30;;;;;;4246585;28;20059;-73
2021/10/17 07:38:02;;;;;;;8.77;4.68;;;16.60;78.30;;;;;;4245602;28;20051;-72
2021/10/17 07:40:10;;;;;;;9.05;4.78;;;16.60;78.30;;;;;;4245389;28;20059;-72
2021/10/17 07:42:13;;;;;;;10.15;4.90;;;16.60;78.30;;;;;;4227538;28;20589;-72
2021/10/17 07:44:21;;;;;;;7.95;4.45;;;16.60;78.20;;;;;;4235094;28;20051;-72
2021/10/17 07:46:30;;;;;;;8.68;5.20;;;16.60;78.20;;;;;;4245689;28;20059;-72
2021/10/17 07:48:38;;;;;;;8.32;4.97;;;16.60;78.30;;;;;;4245324;28;20055;-72
2021/10/17 07:50:41;;;;;;;7.50;5.00;;;16.60;78.20;;;;;;4245399;28;20070;-72
2021/10/17 07:52:49;;;;;;;9.23;5.50;;;16.60;78.30;;;;;;4245443;28;20039;-74
2021/10/17 07:54:52;;;;;;;9.23;5.32;;;16.60;78.30;;;;;;4245294;28;20043;-73
2021/10/17 07:57:00;;;;;;;10.77;5.25;;;16.60;78.20;;;;;;4245369;28;20112;-72
2021/10/17 07:59:07;;;;;;;7.30;5.10;;;16.60;78.30;;;;;;4244925;28;20062;-72
2021/10/17 08:01:10;;;;;;;9.85;5.57;;;16.60;78.30;;;;;;4245503;28;20104;-73
2021/10/17 08:03:14;;;;;;;8.00;5.40;;;16.60;78.30;;;;;;4244911;28;20047;-72
2021/10/17 08:05:23;;;;;;;9.75;5.05;;;16.60;78.20;;;;;;4245460;28;20505;-72
2021/10/17 08:07:31;;;;;;;8.27;5.30;;;16.60;78.20;;;;;;4245245;28;20059;-72
2021/10/17 08:09:39;;;;;;;10.25;5.13;;;16.60;78.20;;;;;;4241504;28;20043;-72
2021/10/17 08:11:47;;;;;;;11.45;5.63;;;16.60;78.20;;;;;;4245974;28;20065;-72
2021/10/17 08:13:50;;;;;;;10.13;5.72;;;16.60;78.20;;;;;;4245059;28;20043;-72
2021/10/17 08:15:53;;;;;;;7.90;5.05;;;16.60;78.20;;;;;;4245841;28;20047;-72
2021/10/17 08:18:00;;;;;;;7.50;5.80;;;16.60;78.20;;;;;;4247524;27;20567;-71
2021/10/17 08:20:06;;;;;;;9.18;5.40;;;16.60;78.20;;;;;;4250824;27;20104;-74
2021/10/17 08:22:10;;;;;;;7.25;5.13;;;16.60;78.20;;;;;;4249360;27;20055;-72
2021/10/17 08:24:13;;;;;;;9.88;5.53;;;16.60;78.20;;;;;;4230172;28;20052;-73
2021/10/17 08:26:16;;;;;;;8.93;5.28;;;16.60;78.20;;;;;;4248624;27;20120;-72
2021/10/17 08:28:24;;;;;;;10.77;5.28;;;16.60;78.20;;;;;;4248247;27;20051;-72
2021/10/17 08:30:27;;;;;;;6.80;4.85;;;16.60;78.40;;;;;;4248190;27;20055;-73
2021/10/17 08:32:30;;;;;;;8.02;4.53;;;16.60;78.30;;;;;;4248037;27;20055;-72
2021/10/17 08:34:33;;;;;;;8.75;5.43;;;16.60;78.80;;;;;;4248013;27;20047;-72
2021/10/17 08:36:41;;;;;;;10.40;5.05;;;16.70;78.30;;;;;;4247990;27;20058;-72
2021/10/17 08:39:04;;;;;;;6.25;4.50;;;16.70;78.30;;;;;;4247887;27;20059;-72
2021/10/17 08:41:13;;;;;;;7.50;4.70;;;16.70;78.30;;;;;;4236723;27;20051;-72
2021/10/17 08:43:21;;;;;;;9.13;5.07;;;16.70;78.30;;;;;;4248003;27;20058;-72
2021/10/17 08:45:25;;;;;;;7.07;4.55;;;16.70;78.30;;;;;;4247932;27;20051;-73
2021/10/17 08:47:34;;;;;;;8.95;4.43;;;16.70;78.20;;;;;;4247693;27;20495;-72
2021/10/17 08:49:44;;;;;;;6.90;4.90;;;16.70;78.20;;;;;;4247926;27;20051;-72
2021/10/17 08:51:52;;;;;;;9.23;4.70;;;16.70;78.30;;;;;;4247877;27;20043;-73
2021/10/17 08:54:00;;;;;;;7.38;4.68;;;16.70;78.20;;;;;;4247873;27;20549;-72
2021/10/17 08:56:12;;;;;;;8.38;4.43;;;16.70;78.20;;;;;;4247229;27;20051;-73
2021/10/17 08:58:15;;;;;;;5.95;4.45;;;16.70;78.40;;;;;;4247846;27;20052;-72
2021/10/17 09:00:28;;;;;;;5.75;4.40;;;16.80;78.80;;;;;;4248092;27;20047;-74
2021/10/17 09:02:43;;;;;;;6.30;4.30;;;16.80;79.00;;;;;;4247903;27;20054;-72
2021/10/17 09:04:58;;;;;;;6.70;4.70;;;16.80;78.90;;;;;;4248924;27;20464;-75
2021/10/17 09:07:16;;;;;;;7.07;4.53;;;16.70;78.70;;;;;;4247897;27;20047;-73
2021/10/17 09:09:19;;;;;;;7.13;4.65;;;16.80;78.80;;;;;;4249206;27;20112;-74
2021/10/17 09:11:37;;;;;;;6.97;4.32;;;16.70;78.60;;;;;;4247439;27;20493;-73
2021/10/17 09:14:02;;;;;;;7.07;4.18;;;16.80;78.50;;;;;;4230527;28;20048;-73
2021/10/17 09:16:21;;;;;;;7.43;4.22;;;16.80;78.80;;;;;;4234411;27;20609;-75
2021/10/17 09:18:25;;;;;;;6.72;4.05;;;16.80;78.70;;;;;;4247300;27;20062;-74
2021/10/17 09:20:29;;;;;;;7.60;3.83;;;16.80;78.90;;;;;;4247459;27;20051;-74
2021/10/17 09:22:32;;;;;;;9.75;4.25;;;16.80;78.70;;;;;;4235969;27;20112;-74
2021/10/17 09:24:37;;;;;;;6.22;3.67;;;16.80;78.70;;;;;;4247624;27;20506;-72
2021/10/17 09:27:03;;;;;;;6.72;4.00;;;16.80;78.50;;;;;;4229017;28;20047;-71
2021/10/17 09:29:06;;;;;;;7.35;3.83;;;16.80;78.50;;;;;;4230035;28;20059;-73
2021/10/17 09:31:16;;;;;;;6.65;3.88;;;16.80;78.60;;;;;;4238821;27;20533;-73
2021/10/17 09:33:20;;;;;;;5.45;3.67;;;16.80;78.50;;;;;;4246988;27;20069;-74
2021/10/17 09:35:30;;;;;;;6.57;3.92;;;16.90;78.40;;;;;;4248121;27;20059;-75
2021/10/17 09:37:40;;;;;;;7.43;4.07;;;16.80;78.40;;;;;;4244181;27;20116;-72
2021/10/17 09:40:00;;;;;;;6.47;3.97;;;16.90;78.40;;;;;;4247138;27;20108;-72
2021/10/17 09:42:05;;;;;;;;;;;16.90;78.40;;;;;;4247529;27;20514;-72
2021/10/17 09:44:08;;;;;;;6.40;3.67;;;16.90;78.40;;;;;;4246999;27;20344;-72
2021/10/17 09:46:12;;;;;;;4.53;3.28;;;16.80;78.40;;;;;;4246762;27;20051;-73
2021/10/17 09:48:29;;;;;;;5.93;4.13;;;16.90;78.40;;;;;;4246980;27;20067;-73
2021/10/17 09:50:32;;;;;;;5.38;3.70;;;16.90;78.40;;;;;;4247208;27;20062;-73
2021/10/17 09:52:35;;;;;;;5.38;3.40;;;16.90;78.40;;;;;;4247294;27;20187;-73
2021/10/17 09:54:38;;;;;;;4.82;3.40;;;16.90;78.40;;;;;;4248986;27;20062;-74
2021/10/17 09:56:43;;;;;;;7.05;3.78;;;16.90;78.30;;;;;;4248941;27;20051;-74
2021/10/17 09:58:47;;;;;;;5.70;3.60;;;16.90;78.40;;;;;;4237441;27;20414;-73
2021/10/17 10:00:50;;;;;;;7.53;2.90;;;16.90;78.40;;;;;;4247320;27;20104;-72
2021/10/17 10:02:53;;;;;;;5.05;3.50;;;16.90;78.70;;;;;;4247006;27;20047;-72
2021/10/17 10:05:02;;;;;;;7.30;3.72;;;16.90;78.20;;;;;;4247060;27;20058;-72
2021/10/17 10:07:05;;;;;;;6.78;4.32;;;17.00;78.30;;;;;;4246510;27;20528;-71
2021/10/17 10:09:10;;;;;;;6.15;3.88;;;17.00;78.10;;;;;;4246694;27;20047;-72
2021/10/17 10:11:14;;;;;;;7.88;3.97;;;17.00;78.10;;;;;;4247043;27;20612;-72
2021/10/17 10:13:21;;;;;;;4.80;3.20;;;17.00;78.10;;;;;;4246197;27;20047;-73
2021/10/17 10:15:32;;;;;;;6.50;3.78;;;17.00;78.10;;;;;;4246221;27;20048;-73
2021/10/17 10:17:42;;;;;;;9.40;3.70;;;17.00;78.70;;;;;;4246355;27;20047;-74
2021/10/17 10:19:51;;;;;;;5.05;3.40;;;17.00;78.10;;;;;;4246620;27;20051;-72
2021/10/17 10:21:55;;;;;;;5.28;3.03;;;17.00;78.10;;;;;;4228723;28;20400;-72
2021/10/17 10:24:06;;;;;;;4.18;2.92;;;17.10;78.20;;;;;;4245559;27;20051;-73
2021/10/17 10:26:10;;;;;;;7.05;3.85;;;17.00;78.10;;;;;;4246452;27;20053;-73
2021/10/17 10:28:14;;;;;;;4.97;3.40;;;17.00;78.10;;;;;;4246005;27;20051;-72
2021/10/17 10:30:27;;;;;;;5.18;3.22;;;17.00;78.10;;;;;;4229075;28;20122;-72
2021/10/17 10:32:32;;;;;;;5.93;3.17;;;17.10;78.20;;;;;;4246267;27;20051;-72
2021/10/17 10:35:03;;;;;;;5.53;2.92;;;17.10;78.10;;;;;;4228217;28;20051;-72
2021/10/17 10:37:14;;;;;;;4.53;3.45;;;17.10;78.00;;;;;;4248929;27;20055;-72
2021/10/17 10:39:18;;;;;;;4.88;2.80;;;17.10;77.90;;;;;;4249401;27;20063;-72
2021/10/17 10:41:22;;;;;;;4.27;2.73;;;17.10;78.00;;;;;;4246171;27;20454;-72
2021/10/17 10:43:34;;;;;;;5.87;3.13;;;17.10;78.10;;;;;;4247837;27;20104;-72
2021/10/17 10:45:37;;;;;;;7.45;3.63;;;17.10;78.10;;;;;;4247812;27;20058;-73
2021/10/17 10:47:42;;;;;;;7.25;3.47;;;17.20;78.00;;;;;;4247277;27;20625;-74
2021/10/17 10:49:50;;;;;;;7.18;3.33;;;17.10;78.00;;;;;;4246131;27;20047;-72
2021/10/17 10:51:53;;;;;;;4.95;2.72;;;17.20;78.10;;;;;;4246323;27;20065;-73
2021/10/17 10:53:56;;;;;;;4.13;2.70;;;17.20;78.10;;;;;;4245841;27;20051;-72
2021/10/17 10:55:59;;;;;;;11.13;3.30;;;17.20;77.90;;;;;;4227904;28;20051;-72
2021/10/17 10:58:23;;;;;;;5.32;3.25;;;17.20;78.00;;;;;;4245963;27;20088;-72